sensor_id;sensor_type;location;lat;lon;timestamp;pressure;altitude;pressure_sealevel;temperature;humidity
56912;BME280;42800;53.928;27.662;2022-08-04T00:00:54;99956.50;;;17.41;100.00
56912;BME280;42800;53.928;27.662;2022-08-04T00:03:28;99952.53;;;17.35;100.00
56912;BME280;42800;53.928;27.662;2022-08-04T00:06:02;99949.75;;;17.35;100.00
56912;BME280;42800;53.928;27.662;2022-08-04T00:08:33;99961.63;;;17.35;100.00
56912;BME280;42800;53.928;27.662;2022-08-04T00:11:03;99958.06;;;17.31;100.00
56912;BME280;42800;53.928;27.662;2022-08-04T00:13:35;99964.00;;;17.30;100.00
56912;BME280;42800;53.928;27.662;2022-08-04T00:16:05;99960.81;;;17.28;100.00
56912;BME280;42800;53.928;27.662;2022-08-04T00:18:36;99963.94;;;17.15;100.00
56912;BME280;42800;53.928;27.662;2022-08-04T00:21:06;99965.91;;;17.15;100.00
56912;BME280;42800;53.928;27.662;2022-08-04T00:23:37;99969.47;;;17.12;100.00
56912;BME280;42800;53.928;27.662;2022-08-04T00:26:04;99966.31;;;17.10;100.00
56912;BME280;42800;53.928;27.662;2022-08-04T00:28:30;99963.53;;;17.10;100.00
56912;BME280;42800;53.928;27.662;2022-08-04T00:30:56;99962.72;;;17.06;100.00
56912;BME280;42800;53.928;27.662;2022-08-04T00:33:23;99959.91;;;17.02;100.00
56912;BME280;42800;53.928;27.662;2022-08-04T00:35:51;99967.81;;;16.93;100.00
56912;BME280;42800;53.928;27.662;2022-08-04T00:38:18;99967.00;;;16.92;100.00
56912;BME280;42800;53.928;27.662;2022-08-04T00:40:52;99965.03;;;16.89;100.00
56912;BME280;42800;53.928;27.662;2022-08-04T00:43:29;99963.84;;;16.94;100.00
56912;BME280;42800;53.928;27.662;2022-08-04T00:49:26;99963.03;;;16.86;100.00
56912;BME280;42800;53.928;27.662;2022-08-04T00:52:04;99956.69;;;16.86;100.00
56912;BME280;42800;53.928;27.662;2022-08-04T00:54:45;99957.88;;;16.85;100.00
56912;BME280;42800;53.928;27.662;2022-08-04T00:57:39;99955.88;;;16.85;100.00
56912;BME280;42800;53.928;27.662;2022-08-04T01:00:15;99951.97;;;16.86;100.00
56912;BME280;42800;53.928;27.662;2022-08-04T01:02:53;99953.13;;;16.89;100.00
56912;BME280;42800;53.928;27.662;2022-08-04T01:05:36;99951.97;;;16.86;100.00
56912;BME280;42800;53.928;27.662;2022-08-04T01:08:28;99951.53;;;16.84;100.00
56912;BME280;42800;53.928;27.662;2022-08-04T01:11:03;99945.22;;;16.84;100.00
56912;BME280;42800;53.928;27.662;2022-08-04T01:13:46;99946.34;;;16.79;100.00
56912;BME280;42800;53.928;27.662;2022-08-04T01:16:16;99948.31;;;16.75;100.00
56912;BME280;42800;53.928;27.662;2022-08-04T01:18:58;99947.09;;;16.73;100.00
56912;BME280;42800;53.928;27.662;2022-08-04T01:21:59;99951.00;;;16.61;100.00
56912;BME280;42800;53.928;27.662;2022-08-04T01:24:57;99931.66;;;16.68;100.00
56912;BME280;42800;53.928;27.662;2022-08-04T01:27:26;99941.50;;;16.65;100.00
56912;BME280;42800;53.928;27.662;2022-08-04T01:30:02;99939.16;;;16.67;100.00
56912;BME280;42800;53.928;27.662;2022-08-04T01:32:32;99941.50;;;16.65;100.00
56912;BME280;42800;53.928;27.662;2022-08-04T01:35:03;99945.13;;;16.69;100.00
56912;BME280;42800;53.928;27.662;2022-08-04T01:37:46;99941.53;;;16.69;100.00
56912;BME280;42800;53.928;27.662;2022-08-04T01:40:14;99948.25;;;16.68;100.00
56912;BME280;42800;53.928;27.662;2022-08-04T01:42:41;99944.69;;;16.67;100.00
56912;BME280;42800;53.928;27.662;2022-08-04T01:45:10;99949.44;;;16.63;100.00
56912;BME280;42800;53.928;27.662;2022-08-04T01:47:40;99936.31;;;16.53;100.00
56912;BME280;42800;53.928;27.662;2022-08-04T01:50:08;99944.63;;;16.53;100.00
56912;BME280;42800;53.928;27.662;2022-08-04T01:52:36;99941.88;;;16.57;100.00
56912;BME280;42800;53.928;27.662;2022-08-04T01:55:04;99945.00;;;16.55;100.00
56912;BME280;42800;53.928;27.662;2022-08-04T01:57:32;99936.25;;;16.46;100.00
56912;BME280;42800;53.928;27.662;2022-08-04T01:59:59;99941.88;;;16.57;100.00
56912;BME280;42800;53.928;27.662;2022-08-04T02:02:26;99938.28;;;16.53;100.00
56912;BME280;42800;53.928;27.662;2022-08-04T02:04:52;99932.34;;;16.51;100.00
56912;BME280;42800;53.928;27.662;2022-08-04T02:07:34;99925.53;;;16.37;100.00
56912;BME280;42800;53.928;27.662;2022-08-04T02:10:07;99916.09;;;16.45;100.00
56912;BME280;42800;53.928;27.662;2022-08-04T02:12:51;99925.59;;;16.44;100.00
56912;BME280;42800;53.928;27.662;2022-08-04T02:15:26;99922.38;;;16.42;100.00
56912;BME280;42800;53.928;27.662;2022-08-04T02:17:59;99921.97;;;16.37;100.00
56912;BME280;42800;53.928;27.662;2022-08-04T02:20:29;99928.72;;;16.39;100.00
56912;BME280;42800;53.928;27.662;2022-08-04T02:22:58;99931.81;;;16.31;100.00
56912;BME280;42800;53.928;27.662;2022-08-04T02:25:26;99926.66;;;16.29;100.00
56912;BME280;42800;53.928;27.662;2022-08-04T02:28:18;99917.22;;;16.34;100.00
56912;BME280;42800;53.928;27.662;2022-08-04T02:30:54;99919.94;;;16.27;100.00
56912;BME280;42800;53.928;27.662;2022-08-04T02:33:28;99922.75;;;16.34;100.00
56912;BME280;42800;53.928;27.662;2022-08-04T02:35:58;99914.06;;;16.35;100.00
56912;BME280;42800;53.928;27.662;2022-08-04T02:38:38;99908.94;;;16.37;100.00
56912;BME280;42800;53.928;27.662;2022-08-04T02:41:07;99919.59;;;16.35;100.00
56912;BME280;42800;53.928;27.662;2022-08-04T02:43:35;99923.53;;;16.34;100.00
56912;BME280;42800;53.928;27.662;2022-08-04T02:46:02;99918.41;;;16.33;100.00
56912;BME280;42800;53.928;27.662;2022-08-04T02:48:31;99925.91;;;16.36;100.00
56912;BME280;42800;53.928;27.662;2022-08-04T02:51:00;99930.28;;;16.37;100.00
56912;BME280;42800;53.928;27.662;2022-08-04T02:53:29;99934.63;;;16.38;100.00
56912;BME280;42800;53.928;27.662;2022-08-04T02:55:59;99931.94;;;16.48;100.00
56912;BME280;42800;53.928;27.662;2022-08-04T02:58:30;99940.69;;;16.58;100.00
56912;BME280;42800;53.928;27.662;2022-08-04T03:00:59;99946.28;;;16.68;100.00
56912;BME280;42800;53.928;27.662;2022-08-04T03:03:33;99978.22;;;17.21;100.00
56912;BME280;42800;53.928;27.662;2022-08-04T03:09:11;99974.06;;;17.95;100.00
56912;BME280;42800;53.928;27.662;2022-08-04T03:14:58;99889.13;;;18.62;100.00
56912;BME280;42800;53.928;27.662;2022-08-04T03:17:58;99812.81;;;18.95;100.00
56912;BME280;42800;53.928;27.662;2022-08-04T03:20:51;99720.16;;;19.20;100.00
56912;BME280;42800;53.928;27.662;2022-08-04T03:23:50;99631.03;;;19.38;100.00
56912;BME280;42800;53.928;27.662;2022-08-04T03:26:44;99545.16;;;19.47;100.00
56912;BME280;42800;53.928;27.662;2022-08-04T03:29:46;99510.63;;;19.75;100.00
56912;BME280;42800;53.928;27.662;2022-08-04T03:35:57;99297.03;;;20.30;100.00
56912;BME280;42800;53.928;27.662;2022-08-04T03:38:42;99220.09;;;20.76;100.00
56912;BME280;42800;53.928;27.662;2022-08-04T03:41:30;99138.88;;;20.77;100.00
56912;BME280;42800;53.928;27.662;2022-08-04T03:44:36;99021.41;;;21.24;100.00
56912;BME280;42800;53.928;27.662;2022-08-04T03:47:33;98934.16;;;21.40;100.00
56912;BME280;42800;53.928;27.662;2022-08-04T03:53:15;98818.41;;;21.96;100.00
56912;BME280;42800;53.928;27.662;2022-08-04T03:56:22;98764.69;;;22.04;100.00
56912;BME280;42800;53.928;27.662;2022-08-04T03:59:23;98707.66;;;22.27;100.00
56912;BME280;42800;53.928;27.662;2022-08-04T04:02:03;98700.41;;;22.61;100.00
56912;BME280;42800;53.928;27.662;2022-08-04T04:04:48;98632.19;;;22.81;100.00
56912;BME280;42800;53.928;27.662;2022-08-04T04:07:32;98608.25;;;23.20;100.00
56912;BME280;42800;53.928;27.662;2022-08-04T04:10:33;98566.00;;;23.36;100.00
56912;BME280;42800;53.928;27.662;2022-08-04T04:16:31;98532.25;;;23.77;100.00
56912;BME280;42800;53.928;27.662;2022-08-04T04:19:27;98523.00;;;24.04;100.00
56912;BME280;42800;53.928;27.662;2022-08-04T04:22:12;98507.78;;;24.29;100.00
56912;BME280;42800;53.928;27.662;2022-08-04T04:24:55;98504.88;;;24.56;100.00
56912;BME280;42800;53.928;27.662;2022-08-04T04:27:36;98503.25;;;24.64;100.00
56912;BME280;42800;53.928;27.662;2022-08-04T04:30:07;98513.94;;;24.75;100.00
56912;BME280;42800;53.928;27.662;2022-08-04T04:32:55;98517.41;;;25.09;100.00
56912;BME280;42800;53.928;27.662;2022-08-04T04:35:34;98528.06;;;25.05;100.00
56912;BME280;42800;53.928;27.662;2022-08-04T04:38:14;98536.66;;;25.25;100.00
56912;BME280;42800;53.928;27.662;2022-08-04T04:40:58;98526.88;;;24.97;100.00
56912;BME280;42800;53.928;27.662;2022-08-04T04:43:46;98535.56;;;25.76;100.00
56912;BME280;42800;53.928;27.662;2022-08-04T04:46:25;98558.03;;;25.91;100.00
56912;BME280;42800;53.928;27.662;2022-08-04T04:49:00;98571.66;;;26.43;100.00
56912;BME280;42800;53.928;27.662;2022-08-04T04:51:32;98591.44;;;26.34;100.00
56912;BME280;42800;53.928;27.662;2022-08-04T04:54:07;98640.75;;;26.64;100.00
56912;BME280;42800;53.928;27.662;2022-08-04T04:56:40;98618.34;;;26.70;100.00
56912;BME280;42800;53.928;27.662;2022-08-04T04:59:10;98637.03;;;27.08;100.00
56912;BME280;42800;53.928;27.662;2022-08-04T05:02:00;98636.59;;;26.95;100.00
56912;BME280;42800;53.928;27.662;2022-08-04T05:04:54;98658.75;;;26.87;100.00
56912;BME280;42800;53.928;27.662;2022-08-04T05:07:47;98655.31;;;27.33;100.00
56912;BME280;42800;53.928;27.662;2022-08-04T05:10:33;98658.41;;;27.35;100.00
56912;BME280;42800;53.928;27.662;2022-08-04T05:13:31;98672.47;;;27.15;100.00
56912;BME280;42800;53.928;27.662;2022-08-04T05:16:02;98664.53;;;27.34;100.00
56912;BME280;42800;53.928;27.662;2022-08-04T05:18:32;98703.19;;;27.54;100.00
56912;BME280;42800;53.928;27.662;2022-08-04T05:21:14;98703.59;;;27.67;100.00
56912;BME280;42800;53.928;27.662;2022-08-04T05:23:48;98731.66;;;27.97;100.00
56912;BME280;42800;53.928;27.662;2022-08-04T05:26:22;98724.59;;;28.33;100.00
56912;BME280;42800;53.928;27.662;2022-08-04T05:28:51;98744.69;;;28.41;100.00
56912;BME280;42800;53.928;27.662;2022-08-04T05:31:21;98772.13;;;28.98;100.00
56912;BME280;42800;53.928;27.662;2022-08-04T05:33:53;98765.09;;;28.09;100.00
56912;BME280;42800;53.928;27.662;2022-08-04T05:36:23;98756.69;;;29.19;100.00
56912;BME280;42800;53.928;27.662;2022-08-04T05:38:53;98732.78;;;28.31;100.00
56912;BME280;42800;53.928;27.662;2022-08-04T05:41:25;98760.75;;;29.13;100.00
56912;BME280;42800;53.928;27.662;2022-08-04T05:43:52;98752.75;;;28.79;100.00
56912;BME280;42800;53.928;27.662;2022-08-04T05:46:19;98701.53;;;28.08;100.00
56912;BME280;42800;53.928;27.662;2022-08-04T05:48:46;98757.41;;;29.14;100.00
56912;BME280;42800;53.928;27.662;2022-08-04T05:51:14;98682.16;;;28.42;100.00
56912;BME280;42800;53.928;27.662;2022-08-04T05:53:42;98718.69;;;28.31;100.00
56912;BME280;42800;53.928;27.662;2022-08-04T05:56:11;98686.03;;;28.45;100.00
56912;BME280;42800;53.928;27.662;2022-08-04T05:58:39;98678.53;;;28.68;100.00
56912;BME280;42800;53.928;27.662;2022-08-04T06:01:08;98714.63;;;28.95;100.00
56912;BME280;42800;53.928;27.662;2022-08-04T06:03:37;98719.06;;;28.18;100.00
56912;BME280;42800;53.928;27.662;2022-08-04T06:06:05;98662.78;;;27.77;100.00
56912;BME280;42800;53.928;27.662;2022-08-04T06:08:33;98670.44;;;28.23;100.00
56912;BME280;42800;53.928;27.662;2022-08-04T06:11:03;98680.78;;;28.95;100.00
56912;BME280;42800;53.928;27.662;2022-08-04T06:13:33;98679.47;;;29.28;100.00
56912;BME280;42800;53.928;27.662;2022-08-04T06:16:04;98702.06;;;28.91;100.00
56912;BME280;42800;53.928;27.662;2022-08-04T06:18:32;98721.63;;;29.37;100.00
56912;BME280;42800;53.928;27.662;2022-08-04T06:21:04;98711.94;;;29.49;100.00
56912;BME280;42800;53.928;27.662;2022-08-04T06:23:32;98781.72;;;30.57;100.00
56912;BME280;42800;53.928;27.662;2022-08-04T06:26:02;98802.88;;;30.95;100.00
56912;BME280;42800;53.928;27.662;2022-08-04T06:28:30;98766.75;;;30.34;100.00
56912;BME280;42800;53.928;27.662;2022-08-04T06:30:57;98761.63;;;29.36;100.00
56912;BME280;42800;53.928;27.662;2022-08-04T06:33:29;98764.59;;;30.12;100.00
56912;BME280;42800;53.928;27.662;2022-08-04T06:35:59;98741.56;;;29.60;100.00
56912;BME280;42800;53.928;27.662;2022-08-04T06:38:28;98758.13;;;30.83;100.00
56912;BME280;42800;53.928;27.662;2022-08-04T06:40:57;98764.25;;;30.64;100.00
56912;BME280;42800;53.928;27.662;2022-08-04T06:43:25;98775.81;;;30.61;100.00
56912;BME280;42800;53.928;27.662;2022-08-04T06:45:52;98800.81;;;31.18;100.00
56912;BME280;42800;53.928;27.662;2022-08-04T06:48:20;98753.00;;;29.99;100.00
56912;BME280;42800;53.928;27.662;2022-08-04T06:50:48;98717.66;;;29.61;100.00
56912;BME280;42800;53.928;27.662;2022-08-04T06:53:16;98715.25;;;30.08;100.00
56912;BME280;42800;53.928;27.662;2022-08-04T06:55:46;98733.34;;;30.27;100.00
56912;BME280;42800;53.928;27.662;2022-08-04T06:58:13;98771.22;;;31.14;100.00
56912;BME280;42800;53.928;27.662;2022-08-04T07:00:42;98747.66;;;30.18;100.00
56912;BME280;42800;53.928;27.662;2022-08-04T07:03:09;98747.56;;;30.89;100.00
56912;BME280;42800;53.928;27.662;2022-08-04T07:05:36;98763.47;;;31.31;100.00
56912;BME280;42800;53.928;27.662;2022-08-04T07:08:03;98753.47;;;31.02;100.00
56912;BME280;42800;53.928;27.662;2022-08-04T07:10:30;98777.06;;;30.48;100.00
56912;BME280;42800;53.928;27.662;2022-08-04T07:12:58;98802.31;;;31.70;100.00
56912;BME280;42800;53.928;27.662;2022-08-04T07:15:25;98762.97;;;31.38;100.00
56912;BME280;42800;53.928;27.662;2022-08-04T07:17:53;98797.97;;;31.58;100.00
56912;BME280;42800;53.928;27.662;2022-08-04T07:20:19;98754.75;;;30.73;100.00
56912;BME280;42800;53.928;27.662;2022-08-04T07:22:47;98778.72;;;31.39;100.00
56912;BME280;42800;53.928;27.662;2022-08-04T07:25:14;98769.97;;;30.92;100.00
56912;BME280;42800;53.928;27.662;2022-08-04T07:28:00;98820.41;;;31.50;100.00
56912;BME280;42800;53.928;27.662;2022-08-04T07:30:27;98734.94;;;31.18;100.00
56912;BME280;42800;53.928;27.662;2022-08-04T07:32:55;98769.16;;;31.48;100.00
56912;BME280;42800;53.928;27.662;2022-08-04T07:35:22;98785.06;;;31.74;100.00
56912;BME280;42800;53.928;27.662;2022-08-04T07:37:48;98792.22;;;31.92;100.00
56912;BME280;42800;53.928;27.662;2022-08-04T07:40:15;98842.00;;;31.70;100.00
56912;BME280;42800;53.928;27.662;2022-08-04T07:43:00;98789.47;;;31.63;100.00
56912;BME280;42800;53.928;27.662;2022-08-04T07:45:27;98784.22;;;30.21;100.00
56912;BME280;42800;53.928;27.662;2022-08-04T07:47:53;98746.00;;;30.82;100.00
56912;BME280;42800;53.928;27.662;2022-08-04T07:50:20;98802.59;;;31.55;100.00
56912;BME280;42800;53.928;27.662;2022-08-04T07:52:47;98798.28;;;31.09;100.00
56912;BME280;42800;53.928;27.662;2022-08-04T07:55:14;98771.94;;;31.65;100.00
56912;BME280;42800;53.928;27.662;2022-08-04T07:57:41;98831.84;;;32.08;100.00
56912;BME280;42800;53.928;27.662;2022-08-04T08:00:09;98830.81;;;32.17;100.00
56912;BME280;42800;53.928;27.662;2022-08-04T08:02:37;98831.38;;;31.82;100.00
56912;BME280;42800;53.928;27.662;2022-08-04T08:05:04;98750.06;;;31.49;100.00
56912;BME280;42800;53.928;27.662;2022-08-04T08:07:33;98782.31;;;30.89;100.00
56912;BME280;42800;53.928;27.662;2022-08-04T08:09:59;98772.78;;;31.09;100.00
56912;BME280;42800;53.928;27.662;2022-08-04T08:12:26;98811.16;;;31.33;100.00
56912;BME280;42800;53.928;27.662;2022-08-04T08:14:52;98813.78;;;32.11;100.00
56912;BME280;42800;53.928;27.662;2022-08-04T08:17:20;98812.38;;;31.71;100.00
56912;BME280;42800;53.928;27.662;2022-08-04T08:19:46;98777.66;;;31.09;100.00
56912;BME280;42800;53.928;27.662;2022-08-04T08:22:12;98772.25;;;31.22;100.00
56912;BME280;42800;53.928;27.662;2022-08-04T08:24:39;98857.03;;;32.29;100.00
56912;BME280;42800;53.928;27.662;2022-08-04T08:27:05;98808.00;;;32.40;100.00
56912;BME280;42800;53.928;27.662;2022-08-04T08:29:33;98895.63;;;32.60;100.00
56912;BME280;42800;53.928;27.662;2022-08-04T08:32:00;98848.28;;;32.27;100.00
56912;BME280;42800;53.928;27.662;2022-08-04T08:34:28;98838.31;;;32.09;100.00
56912;BME280;42800;53.928;27.662;2022-08-04T08:36:59;98778.94;;;31.25;100.00
56912;BME280;42800;53.928;27.662;2022-08-04T08:39:33;98788.13;;;32.45;100.00
56912;BME280;42800;53.928;27.662;2022-08-04T08:45:23;98882.31;;;32.32;100.00
56912;BME280;42800;53.928;27.662;2022-08-04T08:51:09;98867.13;;;32.24;100.00
56912;BME280;42800;53.928;27.662;2022-08-04T08:53:55;98863.69;;;32.48;100.00
56912;BME280;42800;53.928;27.662;2022-08-04T08:56:30;98810.84;;;31.25;100.00
56912;BME280;42800;53.928;27.662;2022-08-04T09:02:07;98863.88;;;31.92;100.00
56912;BME280;42800;53.928;27.662;2022-08-04T09:04:51;98845.31;;;32.02;100.00
56912;BME280;42800;53.928;27.662;2022-08-04T09:07:48;98783.59;;;31.00;100.00
56912;BME280;42800;53.928;27.662;2022-08-04T09:10:23;98804.94;;;31.57;100.00
56912;BME280;42800;53.928;27.662;2022-08-04T09:12:52;98844.72;;;32.15;100.00
56912;BME280;42800;53.928;27.662;2022-08-04T09:15:26;98828.38;;;31.52;100.00
56912;BME280;42800;53.928;27.662;2022-08-04T09:18:06;98724.44;;;30.79;100.00
56912;BME280;42800;53.928;27.662;2022-08-04T09:20:38;98776.09;;;30.63;100.00
56912;BME280;42800;53.928;27.662;2022-08-04T09:23:14;98751.47;;;29.98;100.00
56912;BME280;42800;53.928;27.662;2022-08-04T09:25:48;98701.72;;;30.23;100.00
56912;BME280;42800;53.928;27.662;2022-08-04T09:28:22;98762.97;;;30.71;100.00
56912;BME280;42800;53.928;27.662;2022-08-04T09:30:51;98729.53;;;30.47;100.00
56912;BME280;42800;53.928;27.662;2022-08-04T09:33:27;98760.94;;;30.94;100.00
56912;BME280;42800;53.928;27.662;2022-08-04T09:35:59;98809.06;;;31.00;100.00
56912;BME280;42800;53.928;27.662;2022-08-04T09:38:32;98740.28;;;30.26;100.00
56912;BME280;42800;53.928;27.662;2022-08-04T09:41:15;98653.22;;;29.65;100.00
56912;BME280;42800;53.928;27.662;2022-08-04T09:44:00;98633.00;;;29.23;100.00
56912;BME280;42800;53.928;27.662;2022-08-04T09:46:35;98645.56;;;28.79;100.00
56912;BME280;42800;53.928;27.662;2022-08-04T09:49:09;98607.88;;;28.82;100.00
56912;BME280;42800;53.928;27.662;2022-08-04T09:51:47;98571.13;;;28.71;100.00
56912;BME280;42800;53.928;27.662;2022-08-04T09:54:22;98550.03;;;28.24;100.00
56912;BME280;42800;53.928;27.662;2022-08-04T09:56:57;98561.84;;;28.28;100.00
56912;BME280;42800;53.928;27.662;2022-08-04T09:59:35;98592.31;;;28.55;100.00
56912;BME280;42800;53.928;27.662;2022-08-04T10:02:06;98541.22;;;28.10;100.00
56912;BME280;42800;53.928;27.662;2022-08-04T10:04:34;98571.81;;;28.29;100.00
56912;BME280;42800;53.928;27.662;2022-08-04T10:07:23;98595.56;;;28.80;100.00
56912;BME280;42800;53.928;27.662;2022-08-04T10:10:14;98579.69;;;28.88;100.00
56912;BME280;42800;53.928;27.662;2022-08-04T10:12:52;98649.44;;;29.85;100.00
56912;BME280;42800;53.928;27.662;2022-08-04T10:15:29;98637.41;;;30.01;100.00
56912;BME280;42800;53.928;27.662;2022-08-04T10:18:10;98718.69;;;30.45;100.00
56912;BME280;42800;53.928;27.662;2022-08-04T10:20:50;98755.38;;;30.17;100.00
56912;BME280;42800;53.928;27.662;2022-08-04T10:23:26;98701.63;;;29.41;100.00
56912;BME280;42800;53.928;27.662;2022-08-04T10:26:05;98591.59;;;29.03;100.00
56912;BME280;42800;53.928;27.662;2022-08-04T10:28:42;98586.28;;;29.17;100.00
56912;BME280;42800;53.928;27.662;2022-08-04T10:31:09;98616.94;;;28.98;100.00
56912;BME280;42800;53.928;27.662;2022-08-04T10:33:43;98609.94;;;28.88;100.00
56912;BME280;42800;53.928;27.662;2022-08-04T10:36:10;98633.75;;;28.81;100.00
56912;BME280;42800;53.928;27.662;2022-08-04T10:38:45;98633.72;;;29.67;100.00
56912;BME280;42800;53.928;27.662;2022-08-04T10:41:23;98666.69;;;29.38;100.00
56912;BME280;42800;53.928;27.662;2022-08-04T10:43:58;98675.25;;;29.55;100.00
56912;BME280;42800;53.928;27.662;2022-08-04T10:46:33;98708.59;;;30.11;100.00
56912;BME280;42800;53.928;27.662;2022-08-04T10:49:03;98726.63;;;30.19;100.00
56912;BME280;42800;53.928;27.662;2022-08-04T10:51:35;98745.47;;;30.56;100.00
56912;BME280;42800;53.928;27.662;2022-08-04T10:54:06;98703.25;;;30.18;100.00
56912;BME280;42800;53.928;27.662;2022-08-04T10:56:39;98636.66;;;29.35;100.00
56912;BME280;42800;53.928;27.662;2022-08-04T10:59:10;98609.59;;;29.12;100.00
56912;BME280;42800;53.928;27.662;2022-08-04T11:01:43;98575.56;;;29.38;100.00
56912;BME280;42800;53.928;27.662;2022-08-04T11:04:16;98591.75;;;29.37;100.00
56912;BME280;42800;53.928;27.662;2022-08-04T11:06:47;98578.38;;;29.32;100.00
56912;BME280;42800;53.928;27.662;2022-08-04T11:09:15;98593.25;;;29.27;100.00
56912;BME280;42800;53.928;27.662;2022-08-04T11:11:46;98678.72;;;28.90;100.00
56912;BME280;42800;53.928;27.662;2022-08-04T11:14:16;98654.22;;;29.07;100.00
56912;BME280;42800;53.928;27.662;2022-08-04T11:16:46;98636.47;;;29.55;100.00
56912;BME280;42800;53.928;27.662;2022-08-04T11:19:26;98638.13;;;29.19;100.00
56912;BME280;42800;53.928;27.662;2022-08-04T11:21:55;98638.69;;;29.35;100.00
56912;BME280;42800;53.928;27.662;2022-08-04T11:24:25;98667.94;;;29.86;100.00
56912;BME280;42800;53.928;27.662;2022-08-04T11:27:00;98608.22;;;29.55;100.00
56912;BME280;42800;53.928;27.662;2022-08-04T11:29:35;98613.03;;;29.33;100.00
56912;BME280;42800;53.928;27.662;2022-08-04T11:32:12;98618.63;;;29.21;100.00
56912;BME280;42800;53.928;27.662;2022-08-04T11:34:46;98568.06;;;28.75;100.00
56912;BME280;42800;53.928;27.662;2022-08-04T11:37:17;98597.16;;;28.92;100.00
56912;BME280;42800;53.928;27.662;2022-08-04T11:39:49;98533.16;;;28.67;100.00
56912;BME280;42800;53.928;27.662;2022-08-04T11:42:20;98554.72;;;28.70;100.00
56912;BME280;42800;53.928;27.662;2022-08-04T11:44:49;98626.25;;;28.67;100.00
56912;BME280;42800;53.928;27.662;2022-08-04T11:47:29;98597.25;;;29.03;100.00
56912;BME280;42800;53.928;27.662;2022-08-04T11:50:02;98630.78;;;29.44;100.00
56912;BME280;42800;53.928;27.662;2022-08-04T11:52:31;98641.41;;;29.61;100.00
56912;BME280;42800;53.928;27.662;2022-08-04T11:55:01;98614.50;;;29.76;100.00
56912;BME280;42800;53.928;27.662;2022-08-04T11:57:29;98621.13;;;29.68;100.00
56912;BME280;42800;53.928;27.662;2022-08-04T11:59:56;98604.34;;;29.42;100.00
56912;BME280;42800;53.928;27.662;2022-08-04T12:02:36;98563.03;;;29.44;100.00
56912;BME280;42800;53.928;27.662;2022-08-04T12:05:07;98548.09;;;29.27;100.00
56912;BME280;42800;53.928;27.662;2022-08-04T12:07:41;98586.34;;;28.48;100.00
56912;BME280;42800;53.928;27.662;2022-08-04T12:10:17;98532.22;;;28.81;100.00
56912;BME280;42800;53.928;27.662;2022-08-04T12:12:52;98521.38;;;28.68;100.00
56912;BME280;42800;53.928;27.662;2022-08-04T12:15:27;98519.53;;;28.59;100.00
56912;BME280;42800;53.928;27.662;2022-08-04T12:18:00;98516.09;;;28.87;100.00
56912;BME280;42800;53.928;27.662;2022-08-04T12:20:38;98548.41;;;28.49;100.00
56912;BME280;42800;53.928;27.662;2022-08-04T12:23:23;98550.31;;;28.63;100.00
56912;BME280;42800;53.928;27.662;2022-08-04T12:25:53;98564.25;;;28.78;100.00
56912;BME280;42800;53.928;27.662;2022-08-04T12:28:25;98570.09;;;29.06;100.00
56912;BME280;42800;53.928;27.662;2022-08-04T12:30:59;98579.63;;;29.25;100.00
56912;BME280;42800;53.928;27.662;2022-08-04T12:33:33;98540.53;;;28.58;100.00
56912;BME280;42800;53.928;27.662;2022-08-04T12:36:01;98513.00;;;28.85;100.00
56912;BME280;42800;53.928;27.662;2022-08-04T12:38:32;98495.00;;;28.34;100.00
56912;BME280;42800;53.928;27.662;2022-08-04T12:41:00;98507.47;;;28.53;100.00
56912;BME280;42800;53.928;27.662;2022-08-04T12:43:35;98481.56;;;28.18;100.00
56912;BME280;42800;53.928;27.662;2022-08-04T12:46:04;98541.72;;;28.41;100.00
56912;BME280;42800;53.928;27.662;2022-08-04T12:48:32;98532.41;;;27.97;100.00
56912;BME280;42800;53.928;27.662;2022-08-04T12:51:00;98513.06;;;28.48;100.00
56912;BME280;42800;53.928;27.662;2022-08-04T12:53:31;98534.09;;;28.52;100.00
56912;BME280;42800;53.928;27.662;2022-08-04T12:56:00;98545.84;;;28.88;100.00
56912;BME280;42800;53.928;27.662;2022-08-04T12:58:31;98519.78;;;28.56;100.00
56912;BME280;42800;53.928;27.662;2022-08-04T13:01:02;98544.34;;;28.93;100.00
56912;BME280;42800;53.928;27.662;2022-08-04T13:03:37;98493.63;;;28.55;100.00
56912;BME280;42800;53.928;27.662;2022-08-04T13:06:05;98504.94;;;29.10;100.00
56912;BME280;42800;53.928;27.662;2022-08-04T13:08:35;98534.41;;;29.08;100.00
56912;BME280;42800;53.928;27.662;2022-08-04T13:11:03;98513.72;;;28.74;100.00
56912;BME280;42800;53.928;27.662;2022-08-04T13:13:33;98533.63;;;29.02;100.00
56912;BME280;42800;53.928;27.662;2022-08-04T13:16:01;98482.56;;;28.52;100.00
56912;BME280;42800;53.928;27.662;2022-08-04T13:18:30;98509.63;;;28.38;100.00
56912;BME280;42800;53.928;27.662;2022-08-04T13:21:12;98502.94;;;28.30;100.00
56912;BME280;42800;53.928;27.662;2022-08-04T13:23:40;98477.03;;;28.31;100.00
56912;BME280;42800;53.928;27.662;2022-08-04T13:26:07;98463.66;;;28.21;100.00
56912;BME280;42800;53.928;27.662;2022-08-04T13:28:38;98420.75;;;28.00;100.00
56912;BME280;42800;53.928;27.662;2022-08-04T13:31:07;98437.09;;;27.96;100.00
56912;BME280;42800;53.928;27.662;2022-08-04T13:33:38;98448.41;;;28.01;100.00
56912;BME280;42800;53.928;27.662;2022-08-04T13:36:06;98445.28;;;28.31;100.00
56912;BME280;42800;53.928;27.662;2022-08-04T13:38:34;98434.94;;;28.17;100.00
56912;BME280;42800;53.928;27.662;2022-08-04T13:41:03;98424.16;;;28.09;100.00
56912;BME280;42800;53.928;27.662;2022-08-04T13:43:33;98422.81;;;28.05;100.00